Cranks, Kentucky
Current Conditions -  °F | °C
As of 6:15 AM on Thursday 23 Oct 2014 (Local Time) from K0VG Reporting Station
Overcast Overcast  
Wind Chill: 46°   Ceiling: 2700
Heat Index: 46°   Visibility: 10mi
Dew Point: 41°   Wind: 0mph
Humidity: 81%   Direction: NA
Pressure: 30.22"   Gusts: NA
Location:  36.76°N, 83.17°W
Report Text: K0VG 231015Z AUTO 00000KT 10SM OVC027 08/05 A3022 RMK AO2
Loading
Personal Weather Stations






























Interactive Weather Map
Tropical Storm Tracking
New forecast layout! Learn more

10-Day Weather Forecast

Advertisements
Track Severe Weather on mobile